Ship Status Report: callsign ZLJ8786

sailwx.info

Track history (hours):
 
Tides and Currents Weather Stations Pressure Air Temp Water Temp Dewpoint Dewpoint Depression Visibility Wind Speed Wind Dir Waves Ship Positions

Callsign ZLJ8786 (name unknown)

Last reported at 2018-Jan-23 20:00 UTC. Time now 2018-Jan-24 01:44 UTC.
Position N 25°46' W 080°09'.

Date/timePositionNaut miles runAvg speedWind from/ knotsBaromVisibWave heightAir tempDewpointWater temp
2018-Jan-23 20:00N 25°46' W 080°09'0 0.8
2018-Jan-23 19:30N 25°46' W 080°08'2 4.9
2018-Jan-23 19:00N 25°47' W 080°11'0 0.0
2018-Jan-21 23:59N 25°47' W 080°11'1 1.0
2018-Jan-21 22:28N 25°47' W 080°09'0 0.0
2018-Jan-21 22:00N 25°47' W 080°09'0 0.0
2018-Jan-21 21:30N 25°47' W 080°09'0 0.2
2018-Jan-21 19:30N 25°47' W 080°09'2 4.0
2018-Jan-21 19:01N 25°46' W 080°11'1 1.5
2018-Jan-21 18:31N 25°47' W 080°11'0 0.0
2018-Jan-21 01:29N 25°47' W 080°11'2 2.3
2018-Jan-21 00:30N 25°46' W 080°09'2 4.5
2018-Jan-21 00:00N 25°46' W 080°11'3 6.7
2018-Jan-20 23:30N 25°42' W 080°11'1 1.8
2018-Jan-20 22:58N 25°42' W 080°11'0 0.0
2018-Jan-20 22:22N 25°42' W 080°11'0 0.0
2018-Jan-20 21:58N 25°42' W 080°11'0 0.0
2018-Jan-20 21:23N 25°42' W 080°11'0 0.0
2018-Jan-20 20:52N 25°42' W 080°11'0 0.0
2018-Jan-20 20:22N 25°42' W 080°11'0 0.8
2018-Jan-20 20:00N 25°42' W 080°11'5 5.4
2018-Jan-20 19:00N 25°47' W 080°11'0 0.0
2018-Jan-20 18:30N 25°47' W 080°11'0 0.0
2018-Jan-20 17:57N 25°47' W 080°11'  
Track history (hours):
 
Tides and Currents Weather Stations Pressure Air Temp Water Temp Dewpoint Dewpoint Depression Visibility Wind Speed Wind Dir Waves Ship Positions

Callsign ZLJ8786 (name unknown)

Last reported at 2018-Jan-23 20:00 UTC. Time now 2018-Jan-24 01:44 UTC.
Position N 25°46' W 080°09'.

Date/timePositionNaut miles runAvg speedWind from/ knotsBaromVisibWave heightAir tempDewpointWater temp
2018-Jan-23 20:00N 25°46' W 080°09'0 0.8
2018-Jan-23 19:30N 25°46' W 080°08'2 4.9
2018-Jan-23 19:00N 25°47' W 080°11'0 0.0
2018-Jan-21 23:59N 25°47' W 080°11'1 1.0
2018-Jan-21 22:28N 25°47' W 080°09'0 0.0
2018-Jan-21 22:00N 25°47' W 080°09'0 0.0
2018-Jan-21 21:30N 25°47' W 080°09'0 0.2
2018-Jan-21 19:30N 25°47' W 080°09'2 4.0
2018-Jan-21 19:01N 25°46' W 080°11'1 1.5
2018-Jan-21 18:31N 25°47' W 080°11'0 0.0
2018-Jan-21 01:29N 25°47' W 080°11'2 2.3
2018-Jan-21 00:30N 25°46' W 080°09'2 4.5
2018-Jan-21 00:00N 25°46' W 080°11'3 6.7
2018-Jan-20 23:30N 25°42' W 080°11'1 1.8
2018-Jan-20 22:58N 25°42' W 080°11'0 0.0
2018-Jan-20 22:22N 25°42' W 080°11'0 0.0
2018-Jan-20 21:58N 25°42' W 080°11'0 0.0
2018-Jan-20 21:23N 25°42' W 080°11'0 0.0
2018-Jan-20 20:52N 25°42' W 080°11'0 0.0
2018-Jan-20 20:22N 25°42' W 080°11'0 0.8
2018-Jan-20 20:00N 25°42' W 080°11'5 5.4
2018-Jan-20 19:00N 25°47' W 080°11'0 0.0
2018-Jan-20 18:30N 25°47' W 080°11'0 0.0
2018-Jan-20 17:57N 25°47' W 080°11'  

Dump ship's entire track history